sensor_id;sensor_type;location;lat;lon;timestamp;pressure;altitude;pressure_sealevel;temperature;humidity
75414;BME280;64758;52.122;5.404;2023-02-28T00:01:12;103448.34;;;0.58;95.48
75414;BME280;64758;52.122;5.404;2023-02-28T00:03:39;103445.63;;;0.60;95.83
75414;BME280;64758;52.122;5.404;2023-02-28T00:06:07;103442.13;;;0.61;95.40
75414;BME280;64758;52.122;5.404;2023-02-28T00:08:37;103450.81;;;0.61;95.54
75414;BME280;64758;52.122;5.404;2023-02-28T00:11:05;103456.84;;;0.63;95.17
75414;BME280;64758;52.122;5.404;2023-02-28T00:13:34;103451.66;;;0.62;95.29
75414;BME280;64758;52.122;5.404;2023-02-28T00:16:03;103459.34;;;0.66;95.35
75414;BME280;64758;52.122;5.404;2023-02-28T00:18:31;103455.63;;;0.72;95.74
75414;BME280;64758;52.122;5.404;2023-02-28T00:20:58;103469.34;;;0.78;95.55
75414;BME280;64758;52.122;5.404;2023-02-28T00:23:25;103461.38;;;0.81;96.40
75414;BME280;64758;52.122;5.404;2023-02-28T00:25:52;103462.75;;;0.90;96.59
75414;BME280;64758;52.122;5.404;2023-02-28T00:28:19;103454.00;;;0.91;96.41
75414;BME280;64758;52.122;5.404;2023-02-28T00:30:45;103462.47;;;0.97;96.08
75414;BME280;64758;52.122;5.404;2023-02-28T00:33:12;103454.63;;;0.97;96.21
75414;BME280;64758;52.122;5.404;2023-02-28T00:35:39;103453.47;;;1.04;96.62
75414;BME280;64758;52.122;5.404;2023-02-28T00:38:06;103463.69;;;1.10;96.65
75414;BME280;64758;52.122;5.404;2023-02-28T00:40:32;103452.97;;;1.16;96.91
75414;BME280;64758;52.122;5.404;2023-02-28T00:42:59;103450.16;;;1.21;96.81
75414;BME280;64758;52.122;5.404;2023-02-28T00:45:25;103444.09;;;1.20;96.70
75414;BME280;64758;52.122;5.404;2023-02-28T00:47:52;103444.78;;;1.23;97.13
75414;BME280;64758;52.122;5.404;2023-02-28T00:50:19;103447.09;;;1.31;97.09
75414;BME280;64758;52.122;5.404;2023-02-28T00:52:47;103449.56;;;1.34;97.10
75414;BME280;64758;52.122;5.404;2023-02-28T00:55:14;103446.00;;;1.36;97.13
75414;BME280;64758;52.122;5.404;2023-02-28T00:57:41;103442.25;;;1.42;96.95
75414;BME280;64758;52.122;5.404;2023-02-28T01:00:08;103449.94;;;1.46;97.02
75414;BME280;64758;52.122;5.404;2023-02-28T01:02:35;103438.53;;;1.47;97.14
75414;BME280;64758;52.122;5.404;2023-02-28T01:05:01;103444.50;;;1.51;97.19
75414;BME280;64758;52.122;5.404;2023-02-28T01:07:28;103451.38;;;1.53;97.25
75414;BME280;64758;52.122;5.404;2023-02-28T01:09:54;103448.69;;;1.55;96.46
75414;BME280;64758;52.122;5.404;2023-02-28T01:12:21;103448.63;;;1.56;96.51
75414;BME280;64758;52.122;5.404;2023-02-28T01:14:47;103448.38;;;1.62;97.79
75414;BME280;64758;52.122;5.404;2023-02-28T01:17:14;103436.09;;;1.63;97.20
75414;BME280;64758;52.122;5.404;2023-02-28T01:19:40;103443.00;;;1.65;96.75
75414;BME280;64758;52.122;5.404;2023-02-28T01:22:07;103451.50;;;1.70;96.70
75414;BME280;64758;52.122;5.404;2023-02-28T01:24:33;103445.41;;;1.70;97.10
75414;BME280;64758;52.122;5.404;2023-02-28T01:27:00;103444.34;;;1.74;97.29
75414;BME280;64758;52.122;5.404;2023-02-28T01:29:26;103432.13;;;1.74;97.39
75414;BME280;64758;52.122;5.404;2023-02-28T01:31:53;103438.03;;;1.79;96.80
75414;BME280;64758;52.122;5.404;2023-02-28T01:34:19;103434.28;;;1.85;96.83
75414;BME280;64758;52.122;5.404;2023-02-28T01:36:46;103430.72;;;1.86;96.21
75414;BME280;64758;52.122;5.404;2023-02-28T01:39:13;103441.06;;;1.89;96.09
75414;BME280;64758;52.122;5.404;2023-02-28T01:41:40;103429.63;;;1.91;96.46
75414;BME280;64758;52.122;5.404;2023-02-28T01:44:53;103437.41;;;1.93;95.92
75414;BME280;64758;52.122;5.404;2023-02-28T01:46:53;103428.63;;;1.94;96.26
75414;BME280;64758;52.122;5.404;2023-02-28T01:49:20;103434.50;;;1.99;96.42
75414;BME280;64758;52.122;5.404;2023-02-28T01:51:49;103424.81;;;2.01;95.50
75414;BME280;64758;52.122;5.404;2023-02-28T01:54:24;103422.28;;;1.99;95.92
75414;BME280;64758;52.122;5.404;2023-02-28T01:56:55;103418.75;;;2.00;95.89
75414;BME280;64758;52.122;5.404;2023-02-28T01:59:29;103422.00;;;2.05;95.45
75414;BME280;64758;52.122;5.404;2023-02-28T02:01:57;103422.84;;;2.06;95.14
75414;BME280;64758;52.122;5.404;2023-02-28T02:04:27;103408.81;;;2.07;95.17
75414;BME280;64758;52.122;5.404;2023-02-28T02:06:58;103405.28;;;2.08;95.00
75414;BME280;64758;52.122;5.404;2023-02-28T02:09:25;103411.56;;;2.04;95.53
75414;BME280;64758;52.122;5.404;2023-02-28T02:11:54;103398.47;;;2.04;95.17
75414;BME280;64758;52.122;5.404;2023-02-28T02:17:20;103405.28;;;2.08;95.54
75414;BME280;64758;52.122;5.404;2023-02-28T02:20:05;103405.38;;;2.06;95.21
75414;BME280;64758;52.122;5.404;2023-02-28T02:22:59;103401.09;;;2.04;95.62
75414;BME280;64758;52.122;5.404;2023-02-28T02:25:53;103415.06;;;2.04;94.95
75414;BME280;64758;52.122;5.404;2023-02-28T02:28:39;103404.56;;;2.04;95.94
75414;BME280;64758;52.122;5.404;2023-02-28T02:31:20;103415.75;;;2.08;95.26
75414;BME280;64758;52.122;5.404;2023-02-28T02:34:20;103420.09;;;2.09;96.00
75414;BME280;64758;52.122;5.404;2023-02-28T02:39:34;103413.00;;;2.11;95.54
75414;BME280;64758;52.122;5.404;2023-02-28T02:42:11;103403.25;;;2.14;95.63
75414;BME280;64758;52.122;5.404;2023-02-28T02:44:45;103407.47;;;2.17;95.59
75414;BME280;64758;52.122;5.404;2023-02-28T02:47:16;103418.75;;;2.19;95.88
75414;BME280;64758;52.122;5.404;2023-02-28T02:49:49;103409.31;;;2.15;95.95
75414;BME280;64758;52.122;5.404;2023-02-28T02:52:22;103411.66;;;2.21;95.66
75414;BME280;64758;52.122;5.404;2023-02-28T02:54:52;103403.94;;;2.18;96.15
75414;BME280;64758;52.122;5.404;2023-02-28T02:57:48;103409.13;;;2.19;96.34
75414;BME280;64758;52.122;5.404;2023-02-28T03:00:18;103414.09;;;2.25;96.48
75414;BME280;64758;52.122;5.404;2023-02-28T03:02:47;103407.00;;;2.27;96.85
75414;BME280;64758;52.122;5.404;2023-02-28T03:05:26;103406.09;;;2.28;96.60
75414;BME280;64758;52.122;5.404;2023-02-28T03:07:52;103407.78;;;2.29;96.62
75414;BME280;64758;52.122;5.404;2023-02-28T03:13:08;103422.22;;;2.38;96.91
75414;BME280;64758;52.122;5.404;2023-02-28T03:21:34;103417.75;;;2.40;96.60
75414;BME280;64758;52.122;5.404;2023-02-28T03:24:10;103403.88;;;2.38;97.21
75414;BME280;64758;52.122;5.404;2023-02-28T03:26:44;103409.13;;;2.38;96.76
75414;BME280;64758;52.122;5.404;2023-02-28T03:29:21;103417.75;;;2.40;97.70
75414;BME280;64758;52.122;5.404;2023-02-28T03:31:53;103424.81;;;2.39;97.39
75414;BME280;64758;52.122;5.404;2023-02-28T03:36:57;103410.69;;;2.42;97.36
75414;BME280;64758;52.122;5.404;2023-02-28T03:39:35;103415.63;;;2.47;97.17
75414;BME280;64758;52.122;5.404;2023-02-28T03:42:08;103410.25;;;2.50;97.54
75414;BME280;64758;52.122;5.404;2023-02-28T03:45:03;103421.47;;;2.54;96.75
75414;BME280;64758;52.122;5.404;2023-02-28T03:47:47;103422.31;;;2.54;97.22
75414;BME280;64758;52.122;5.404;2023-02-28T03:50:21;103427.53;;;2.54;96.36
75414;BME280;64758;52.122;5.404;2023-02-28T03:53:10;103423.91;;;2.57;96.72
75414;BME280;64758;52.122;5.404;2023-02-28T03:55:42;103431.78;;;2.57;96.93
75414;BME280;64758;52.122;5.404;2023-02-28T03:58:22;103430.31;;;2.51;96.74
75414;BME280;64758;52.122;5.404;2023-02-28T04:00:56;103432.94;;;2.51;95.24
75414;BME280;64758;52.122;5.404;2023-02-28T04:03:24;103425.22;;;2.48;95.18
75414;BME280;64758;52.122;5.404;2023-02-28T04:05:53;103423.47;;;2.49;95.15
75414;BME280;64758;52.122;5.404;2023-02-28T04:08:21;103433.84;;;2.50;94.13
75414;BME280;64758;52.122;5.404;2023-02-28T04:10:54;103427.84;;;2.48;94.19
75414;BME280;64758;52.122;5.404;2023-02-28T04:13:21;103433.03;;;2.50;94.59
75414;BME280;64758;52.122;5.404;2023-02-28T04:15:48;103437.50;;;2.48;93.78
75414;BME280;64758;52.122;5.404;2023-02-28T04:18:15;103429.69;;;2.47;93.37
75414;BME280;64758;52.122;5.404;2023-02-28T04:20:41;103440.31;;;2.44;91.58
75414;BME280;64758;52.122;5.404;2023-02-28T04:23:07;103431.94;;;2.36;89.69
75414;BME280;64758;52.122;5.404;2023-02-28T04:25:34;103439.16;;;2.31;87.77
75414;BME280;64758;52.122;5.404;2023-02-28T04:28:01;103436.81;;;2.25;87.19
75414;BME280;64758;52.122;5.404;2023-02-28T04:30:27;103437.81;;;2.22;86.54
75414;BME280;64758;52.122;5.404;2023-02-28T04:32:55;103449.94;;;2.25;86.16
75414;BME280;64758;52.122;5.404;2023-02-28T04:35:22;103439.66;;;2.20;85.67
75414;BME280;64758;52.122;5.404;2023-02-28T04:37:48;103444.00;;;2.21;85.32
75414;BME280;64758;52.122;5.404;2023-02-28T04:40:15;103439.59;;;2.22;85.08
75414;BME280;64758;52.122;5.404;2023-02-28T04:42:42;103449.16;;;2.23;85.36
75414;BME280;64758;52.122;5.404;2023-02-28T04:45:09;103452.78;;;2.20;84.95
75414;BME280;64758;52.122;5.404;2023-02-28T04:47:36;103458.84;;;2.21;85.62
75414;BME280;64758;52.122;5.404;2023-02-28T04:50:03;103448.38;;;2.21;85.56
75414;BME280;64758;52.122;5.404;2023-02-28T04:52:30;103451.13;;;2.18;84.51
75414;BME280;64758;52.122;5.404;2023-02-28T04:54:56;103436.31;;;2.17;84.66
75414;BME280;64758;52.122;5.404;2023-02-28T04:57:23;103445.22;;;2.13;84.47
75414;BME280;64758;52.122;5.404;2023-02-28T04:59:49;103442.56;;;2.14;84.41
75414;BME280;64758;52.122;5.404;2023-02-28T05:02:16;103445.38;;;2.10;85.19
75414;BME280;64758;52.122;5.404;2023-02-28T05:04:42;103449.91;;;2.06;85.65
75414;BME280;64758;52.122;5.404;2023-02-28T05:07:09;103439.56;;;2.03;85.72
75414;BME280;64758;52.122;5.404;2023-02-28T05:09:36;103450.88;;;2.04;85.72
75414;BME280;64758;52.122;5.404;2023-02-28T05:12:02;103441.59;;;1.97;87.13
75414;BME280;64758;52.122;5.404;2023-02-28T05:14:29;103440.88;;;1.93;87.78
75414;BME280;64758;52.122;5.404;2023-02-28T05:16:55;103442.00;;;1.88;88.17
75414;BME280;64758;52.122;5.404;2023-02-28T05:19:22;103442.13;;;1.85;88.47
75414;BME280;64758;52.122;5.404;2023-02-28T05:21:54;103446.59;;;1.83;88.85
75414;BME280;64758;52.122;5.404;2023-02-28T05:24:21;103455.44;;;1.80;89.88
75414;BME280;64758;52.122;5.404;2023-02-28T05:26:51;103459.75;;;1.81;90.52
75414;BME280;64758;52.122;5.404;2023-02-28T05:29:19;103453.78;;;1.78;91.28
75414;BME280;64758;52.122;5.404;2023-02-28T05:31:45;103451.81;;;1.83;90.69
75414;BME280;64758;52.122;5.404;2023-02-28T05:34:12;103454.53;;;1.81;91.21
75414;BME280;64758;52.122;5.404;2023-02-28T05:36:42;103453.59;;;1.82;91.35
75414;BME280;64758;52.122;5.404;2023-02-28T05:39:08;103451.13;;;1.79;91.78
75414;BME280;64758;52.122;5.404;2023-02-28T05:41:42;103453.88;;;1.76;91.70
75414;BME280;64758;52.122;5.404;2023-02-28T05:44:10;103440.03;;;1.73;92.27
75414;BME280;64758;52.122;5.404;2023-02-28T05:46:36;103440.03;;;1.73;92.37
75414;BME280;64758;52.122;5.404;2023-02-28T05:49:04;103454.19;;;1.69;92.55
75414;BME280;64758;52.122;5.404;2023-02-28T05:51:31;103454.19;;;1.69;92.27
75414;BME280;64758;52.122;5.404;2023-02-28T05:54:01;103450.78;;;1.67;92.62
75414;BME280;64758;52.122;5.404;2023-02-28T05:56:28;103445.63;;;1.65;93.41
75414;BME280;64758;52.122;5.404;2023-02-28T05:58:54;103462.28;;;1.63;93.15
75414;BME280;64758;52.122;5.404;2023-02-28T06:04:00;103455.75;;;1.53;94.23
75414;BME280;64758;52.122;5.404;2023-02-28T06:06:27;103457.66;;;1.49;94.73
75414;BME280;64758;52.122;5.404;2023-02-28T06:08:54;103452.59;;;1.45;95.10
75414;BME280;64758;52.122;5.404;2023-02-28T06:11:20;103453.59;;;1.42;95.00
75414;BME280;64758;52.122;5.404;2023-02-28T06:13:47;103459.91;;;1.37;95.92
75414;BME280;64758;52.122;5.404;2023-02-28T06:16:14;103451.47;;;1.30;96.15
75414;BME280;64758;52.122;5.404;2023-02-28T06:18:40;103441.97;;;1.28;96.50
75414;BME280;64758;52.122;5.404;2023-02-28T06:21:07;103453.31;;;1.28;96.82
75414;BME280;64758;52.122;5.404;2023-02-28T06:23:35;103449.13;;;1.24;96.92
75414;BME280;64758;52.122;5.404;2023-02-28T06:26:01;103439.63;;;1.22;97.65
75414;BME280;64758;52.122;5.404;2023-02-28T06:28:28;103449.06;;;1.26;97.66
75414;BME280;64758;52.122;5.404;2023-02-28T06:30:54;103437.84;;;1.23;97.95
75414;BME280;64758;52.122;5.404;2023-02-28T06:33:21;103447.63;;;1.19;97.79
75414;BME280;64758;52.122;5.404;2023-02-28T06:35:50;103451.16;;;1.18;97.84
75414;BME280;64758;52.122;5.404;2023-02-28T06:38:18;103455.47;;;1.19;98.15
75414;BME280;64758;52.122;5.404;2023-02-28T06:40:44;103448.41;;;1.21;98.72
75414;BME280;64758;52.122;5.404;2023-02-28T06:43:11;103454.56;;;1.20;98.59
75414;BME280;64758;52.122;5.404;2023-02-28T06:45:42;103448.31;;;1.23;98.73
75414;BME280;64758;52.122;5.404;2023-02-28T06:48:09;103446.69;;;1.20;99.60
75414;BME280;64758;52.122;5.404;2023-02-28T06:50:36;103445.00;;;1.19;99.28
75414;BME280;64758;52.122;5.404;2023-02-28T06:53:03;103447.50;;;1.22;99.52
75414;BME280;64758;52.122;5.404;2023-02-28T06:55:30;103444.88;;;1.22;99.46
75414;BME280;64758;52.122;5.404;2023-02-28T06:57:57;103461.25;;;1.27;99.74
75414;BME280;64758;52.122;5.404;2023-02-28T07:00:24;103453.19;;;1.31;100.00
75414;BME280;64758;52.122;5.404;2023-02-28T07:02:51;103455.47;;;1.39;100.00
75414;BME280;64758;52.122;5.404;2023-02-28T07:05:17;103456.25;;;1.41;100.00
75414;BME280;64758;52.122;5.404;2023-02-28T07:07:44;103467.38;;;1.46;99.90
75414;BME280;64758;52.122;5.404;2023-02-28T07:10:13;103468.84;;;1.53;100.00
75414;BME280;64758;52.122;5.404;2023-02-28T07:12:45;103468.78;;;1.54;100.00
75414;BME280;64758;52.122;5.404;2023-02-28T07:15:12;103467.13;;;1.52;100.00
75414;BME280;64758;52.122;5.404;2023-02-28T07:17:38;103462.69;;;1.54;100.00
75414;BME280;64758;52.122;5.404;2023-02-28T07:20:05;103459.81;;;1.60;100.00
75414;BME280;64758;52.122;5.404;2023-02-28T07:22:32;103465.78;;;1.63;100.00
75414;BME280;64758;52.122;5.404;2023-02-28T07:24:58;103462.25;;;1.64;100.00
75414;BME280;64758;52.122;5.404;2023-02-28T07:27:25;103473.44;;;1.68;100.00
75414;BME280;64758;52.122;5.404;2023-02-28T07:29:52;103473.38;;;1.69;100.00
75414;BME280;64758;52.122;5.404;2023-02-28T07:32:19;103480.97;;;1.75;100.00
75414;BME280;64758;52.122;5.404;2023-02-28T07:34:46;103471.34;;;1.76;100.00
75414;BME280;64758;52.122;5.404;2023-02-28T07:37:12;103470.25;;;1.81;100.00
75414;BME280;64758;52.122;5.404;2023-02-28T07:39:39;103465.69;;;1.85;100.00
75414;BME280;64758;52.122;5.404;2023-02-28T07:42:08;103476.91;;;1.88;100.00
75414;BME280;64758;52.122;5.404;2023-02-28T07:44:41;103479.41;;;1.91;100.00
75414;BME280;64758;52.122;5.404;2023-02-28T07:47:09;103481.03;;;1.94;100.00
75414;BME280;64758;52.122;5.404;2023-02-28T07:49:36;103483.50;;;1.97;100.00
75414;BME280;64758;52.122;5.404;2023-02-28T07:52:06;103485.03;;;2.02;100.00
75414;BME280;64758;52.122;5.404;2023-02-28T07:54:33;103483.91;;;2.08;100.00
75414;BME280;64758;52.122;5.404;2023-02-28T07:57:00;103479.38;;;2.11;100.00
75414;BME280;64758;52.122;5.404;2023-02-28T07:59:26;103472.19;;;2.16;100.00
75414;BME280;64758;52.122;5.404;2023-02-28T08:01:53;103478.13;;;2.20;100.00
75414;BME280;64758;52.122;5.404;2023-02-28T08:04:20;103474.31;;;2.27;100.00
75414;BME280;64758;52.122;5.404;2023-02-28T08:06:47;103481.75;;;2.36;99.51
75414;BME280;64758;52.122;5.404;2023-02-28T08:09:13;103492.06;;;2.40;99.46
75414;BME280;64758;52.122;5.404;2023-02-28T08:11:41;103502.47;;;2.42;99.82
75414;BME280;64758;52.122;5.404;2023-02-28T08:14:07;103495.09;;;2.49;99.18
75414;BME280;64758;52.122;5.404;2023-02-28T08:16:34;103494.91;;;2.54;98.76
75414;BME280;64758;52.122;5.404;2023-02-28T08:19:00;103490.63;;;2.51;98.74
75414;BME280;64758;52.122;5.404;2023-02-28T08:21:27;103508.06;;;2.52;98.86
75414;BME280;64758;52.122;5.404;2023-02-28T08:23:54;103509.63;;;2.56;98.35
75414;BME280;64758;52.122;5.404;2023-02-28T08:26:20;103509.50;;;2.59;98.36
75414;BME280;64758;52.122;5.404;2023-02-28T08:28:47;103493.53;;;2.64;98.25
75414;BME280;64758;52.122;5.404;2023-02-28T08:31:16;103504.53;;;2.72;98.52
75414;BME280;64758;52.122;5.404;2023-02-28T08:33:43;103507.78;;;2.77;97.26
75414;BME280;64758;52.122;5.404;2023-02-28T08:36:16;103499.88;;;2.78;96.67
75414;BME280;64758;52.122;5.404;2023-02-28T08:38:43;103499.50;;;2.86;97.10
75414;BME280;64758;52.122;5.404;2023-02-28T08:41:12;103495.59;;;2.94;95.79
75414;BME280;64758;52.122;5.404;2023-02-28T08:43:39;103505.03;;;2.98;95.66
75414;BME280;64758;52.122;5.404;2023-02-28T08:46:06;103499.53;;;3.03;94.92
75414;BME280;64758;52.122;5.404;2023-02-28T08:48:34;103496.72;;;3.07;94.55
75414;BME280;64758;52.122;5.404;2023-02-28T08:51:04;103492.88;;;3.14;93.52
75414;BME280;64758;52.122;5.404;2023-02-28T08:53:35;103485.00;;;3.14;92.24
75414;BME280;64758;52.122;5.404;2023-02-28T08:56:09;103491.56;;;3.23;91.57
75414;BME280;64758;52.122;5.404;2023-02-28T08:58:37;103490.66;;;3.24;90.22
75414;BME280;64758;52.122;5.404;2023-02-28T09:01:29;103500.94;;;3.28;89.87
75414;BME280;64758;52.122;5.404;2023-02-28T09:03:56;103498.78;;;3.36;89.35
75414;BME280;64758;52.122;5.404;2023-02-28T09:06:24;103491.69;;;3.38;87.72
75414;BME280;64758;52.122;5.404;2023-02-28T09:08:52;103498.41;;;3.44;87.74
75414;BME280;64758;52.122;5.404;2023-02-28T09:11:19;103504.59;;;3.60;86.21
75414;BME280;64758;52.122;5.404;2023-02-28T09:13:46;103487.06;;;3.77;85.68
75414;BME280;64758;52.122;5.404;2023-02-28T09:16:14;103479.75;;;3.99;84.09
75414;BME280;64758;52.122;5.404;2023-02-28T09:18:41;103488.06;;;4.24;82.15
75414;BME280;64758;52.122;5.404;2023-02-28T09:21:10;103494.59;;;4.49;79.96
75414;BME280;64758;52.122;5.404;2023-02-28T09:23:41;103484.13;;;4.48;75.35
75414;BME280;64758;52.122;5.404;2023-02-28T09:26:23;103476.19;;;4.49;74.75
75414;BME280;64758;52.122;5.404;2023-02-28T09:28:50;103485.00;;;4.64;75.02
75414;BME280;64758;52.122;5.404;2023-02-28T09:31:22;103486.31;;;4.72;73.49
75414;BME280;64758;52.122;5.404;2023-02-28T09:33:52;103476.00;;;4.68;70.09
75414;BME280;64758;52.122;5.404;2023-02-28T09:36:20;103483.06;;;4.67;70.73
75414;BME280;64758;52.122;5.404;2023-02-28T09:38:49;103488.41;;;4.66;68.37
75414;BME280;64758;52.122;5.404;2023-02-28T09:41:21;103489.94;;;4.70;66.67
75414;BME280;64758;52.122;5.404;2023-02-28T09:43:59;103493.03;;;4.93;66.96
75414;BME280;64758;52.122;5.404;2023-02-28T09:46:44;103490.63;;;4.89;67.37
75414;BME280;64758;52.122;5.404;2023-02-28T09:49:20;103488.66;;;4.77;66.17
75414;BME280;64758;52.122;5.404;2023-02-28T09:51:58;103483.50;;;4.75;64.95
75414;BME280;64758;52.122;5.404;2023-02-28T09:54:30;103497.16;;;4.82;64.04
75414;BME280;64758;52.122;5.404;2023-02-28T09:57:06;103489.88;;;4.87;64.41
75414;BME280;64758;52.122;5.404;2023-02-28T10:05:24;103491.38;;;5.21;60.59
75414;BME280;64758;52.122;5.404;2023-02-28T10:10:34;103481.50;;;5.40;59.87
75414;BME280;64758;52.122;5.404;2023-02-28T10:13:11;103480.03;;;5.50;58.88
75414;BME280;64758;52.122;5.404;2023-02-28T10:15:40;103469.91;;;5.72;58.79
75414;BME280;64758;52.122;5.404;2023-02-28T10:18:13;103474.13;;;5.90;56.64
75414;BME280;64758;52.122;5.404;2023-02-28T10:20:42;103459.28;;;6.17;57.55
75414;BME280;64758;52.122;5.404;2023-02-28T10:23:12;103468.41;;;6.39;54.85
75414;BME280;64758;52.122;5.404;2023-02-28T10:25:45;103463.78;;;6.43;54.37
75414;BME280;64758;52.122;5.404;2023-02-28T10:28:16;103464.69;;;6.56;54.37
75414;BME280;64758;52.122;5.404;2023-02-28T10:30:49;103464.25;;;6.63;54.81
75414;BME280;64758;52.122;5.404;2023-02-28T10:35:46;103460.47;;;6.94;52.46
75414;BME280;64758;52.122;5.404;2023-02-28T10:38:19;103465.75;;;6.53;51.27
75414;BME280;64758;52.122;5.404;2023-02-28T10:40:46;103470.84;;;6.42;52.54
75414;BME280;64758;52.122;5.404;2023-02-28T10:46:02;103462.22;;;6.67;51.59
75414;BME280;64758;52.122;5.404;2023-02-28T10:48:34;103471.03;;;6.67;51.25
75414;BME280;64758;52.122;5.404;2023-02-28T10:51:03;103470.06;;;6.68;51.27
75414;BME280;64758;52.122;5.404;2023-02-28T10:53:37;103471.09;;;6.66;51.18
75414;BME280;64758;52.122;5.404;2023-02-28T10:56:24;103449.59;;;6.72;51.12
75414;BME280;64758;52.122;5.404;2023-02-28T11:01:43;103451.25;;;6.87;50.72
75414;BME280;64758;52.122;5.404;2023-02-28T11:06:59;103443.66;;;6.68;50.21
75414;BME280;64758;52.122;5.404;2023-02-28T11:09:31;103445.00;;;6.61;50.77
75414;BME280;64758;52.122;5.404;2023-02-28T11:11:59;103442.53;;;6.72;51.05
75414;BME280;64758;52.122;5.404;2023-02-28T11:14:29;103451.78;;;6.65;49.33
75414;BME280;64758;52.122;5.404;2023-02-28T11:17:02;103441.44;;;6.48;49.82
75414;BME280;64758;52.122;5.404;2023-02-28T11:19:46;103433.22;;;6.53;50.43
75414;BME280;64758;52.122;5.404;2023-02-28T11:22:22;103432.47;;;6.51;50.52
75414;BME280;64758;52.122;5.404;2023-02-28T11:24:55;103435.84;;;6.53;51.18
75414;BME280;64758;52.122;5.404;2023-02-28T11:30:00;103429.16;;;6.61;49.95
75414;BME280;64758;52.122;5.404;2023-02-28T11:32:28;103431.06;;;6.45;49.39
75414;BME280;64758;52.122;5.404;2023-02-28T11:37:28;103423.97;;;6.60;50.17
75414;BME280;64758;52.122;5.404;2023-02-28T11:39:56;103425.56;;;6.62;50.33
75414;BME280;64758;52.122;5.404;2023-02-28T11:45:45;103419.16;;;6.66;50.88
75414;BME280;64758;52.122;5.404;2023-02-28T11:48:22;103411.13;;;6.68;49.15
75414;BME280;64758;52.122;5.404;2023-02-28T11:51:00;103407.81;;;6.78;49.28
75414;BME280;64758;52.122;5.404;2023-02-28T11:53:50;103403.06;;;6.83;50.13
75414;BME280;64758;52.122;5.404;2023-02-28T11:56:44;103407.81;;;6.78;49.37
75414;BME280;64758;52.122;5.404;2023-02-28T12:02:24;103418.00;;;6.70;49.84
75414;BME280;64758;52.122;5.404;2023-02-28T12:10:35;103401.22;;;6.98;49.13
75414;BME280;64758;52.122;5.404;2023-02-28T12:13:18;103391.31;;;7.01;48.10
75414;BME280;64758;52.122;5.404;2023-02-28T12:19:06;103380.81;;;7.00;48.51
75414;BME280;64758;52.122;5.404;2023-02-28T12:24:55;103387.13;;;7.24;47.95
75414;BME280;64758;52.122;5.404;2023-02-28T12:27:22;103377.63;;;7.21;48.33
75414;BME280;64758;52.122;5.404;2023-02-28T12:29:56;103377.94;;;7.29;47.72
75414;BME280;64758;52.122;5.404;2023-02-28T12:32:32;103378.56;;;7.33;46.80
75414;BME280;64758;52.122;5.404;2023-02-28T12:37:56;103378.78;;;7.30;47.33
75414;BME280;64758;52.122;5.404;2023-02-28T12:40:29;103378.03;;;7.15;47.51
75414;BME280;64758;52.122;5.404;2023-02-28T12:43:04;103377.69;;;7.07;47.68
75414;BME280;64758;52.122;5.404;2023-02-28T12:46:01;103377.91;;;7.17;47.86
75414;BME280;64758;52.122;5.404;2023-02-28T12:48:56;103370.97;;;7.28;47.24
75414;BME280;64758;52.122;5.404;2023-02-28T12:51:25;103369.69;;;7.34;46.42
75414;BME280;64758;52.122;5.404;2023-02-28T12:54:24;103366.19;;;7.21;47.64
75414;BME280;64758;52.122;5.404;2023-02-28T12:59:39;103365.28;;;7.34;45.72
75414;BME280;64758;52.122;5.404;2023-02-28T13:10:07;103346.03;;;7.32;46.35
75414;BME280;64758;52.122;5.404;2023-02-28T13:12:34;103348.16;;;7.52;46.96
75414;BME280;64758;52.122;5.404;2023-02-28T13:15:08;103342.88;;;7.52;45.67
75414;BME280;64758;52.122;5.404;2023-02-28T13:17:48;103347.50;;;7.49;46.93
75414;BME280;64758;52.122;5.404;2023-02-28T13:20:18;103335.88;;;7.39;45.80
75414;BME280;64758;52.122;5.404;2023-02-28T13:22:50;103332.94;;;7.43;45.95
75414;BME280;64758;52.122;5.404;2023-02-28T13:28:13;103345.16;;;7.32;44.48
75414;BME280;64758;52.122;5.404;2023-02-28T13:31:02;103344.50;;;7.16;45.67
75414;BME280;64758;52.122;5.404;2023-02-28T13:33:37;103335.63;;;7.17;45.16
75414;BME280;64758;52.122;5.404;2023-02-28T13:36:30;103335.53;;;7.31;45.04
75414;BME280;64758;52.122;5.404;2023-02-28T13:39:02;103335.88;;;7.39;45.33
75414;BME280;64758;52.122;5.404;2023-02-28T13:46:34;103329.13;;;7.47;45.08
75414;BME280;64758;52.122;5.404;2023-02-28T13:49:27;103329.09;;;7.35;44.92
75414;BME280;64758;52.122;5.404;2023-02-28T13:57:41;103314.94;;;7.23;44.47
75414;BME280;64758;52.122;5.404;2023-02-28T14:05:32;103304.88;;;7.41;44.65
75414;BME280;64758;52.122;5.404;2023-02-28T14:08:06;103307.13;;;7.59;44.59
75414;BME280;64758;52.122;5.404;2023-02-28T14:10:42;103293.53;;;7.76;44.56
75414;BME280;64758;52.122;5.404;2023-02-28T14:13:43;103308.34;;;7.78;45.00
75414;BME280;64758;52.122;5.404;2023-02-28T14:16:15;103296.69;;;7.81;44.32
75414;BME280;64758;52.122;5.404;2023-02-28T14:32:27;103291.38;;;8.42;43.59
75414;BME280;64758;52.122;5.404;2023-02-28T14:37:44;103278.63;;;9.04;42.57
75414;BME280;64758;52.122;5.404;2023-02-28T14:40:25;103278.97;;;9.00;42.02
75414;BME280;64758;52.122;5.404;2023-02-28T14:43:04;103285.44;;;8.96;41.90
75414;BME280;64758;52.122;5.404;2023-02-28T14:45:35;103287.63;;;8.91;42.70
75414;BME280;64758;52.122;5.404;2023-02-28T14:48:04;103271.00;;;8.89;41.27
75414;BME280;64758;52.122;5.404;2023-02-28T14:50:37;103277.09;;;8.79;41.46
75414;BME280;64758;52.122;5.404;2023-02-28T14:53:06;103281.06;;;8.73;41.02
75414;BME280;64758;52.122;5.404;2023-02-28T14:55:45;103274.44;;;8.79;41.83
75414;BME280;64758;52.122;5.404;2023-02-28T14:58:29;103271.59;;;8.92;42.02
75414;BME280;64758;52.122;5.404;2023-02-28T15:00:59;103277.19;;;9.11;40.18
75414;BME280;64758;52.122;5.404;2023-02-28T15:06:01;103271.25;;;8.97;40.45
75414;BME280;64758;52.122;5.404;2023-02-28T15:08:29;103283.22;;;9.13;40.12
75414;BME280;64758;52.122;5.404;2023-02-28T15:13:37;103286.44;;;9.62;40.21
75414;BME280;64758;52.122;5.404;2023-02-28T15:16:10;103264.88;;;10.31;39.31